sensor_id;sensor_type;location;lat;lon;timestamp;temperature;humidity
31725;DHT22;18306;40.960;14.836;2023-04-24T00:02:08;16.50;99.90
31725;DHT22;18306;40.960;14.836;2023-04-24T00:04:38;17.20;99.90
31725;DHT22;18306;40.960;14.836;2023-04-24T00:07:07;17.30;99.90
31725;DHT22;18306;40.960;14.836;2023-04-24T00:09:34;17.30;99.90
31725;DHT22;18306;40.960;14.836;2023-04-24T00:12:02;17.20;99.90
31725;DHT22;18306;40.960;14.836;2023-04-24T00:14:33;17.30;99.90
31725;DHT22;18306;40.960;14.836;2023-04-24T00:17:01;17.30;99.90
31725;DHT22;18306;40.960;14.836;2023-04-24T00:19:29;17.20;99.90
31725;DHT22;18306;40.960;14.836;2023-04-24T00:21:56;17.30;99.90
31725;DHT22;18306;40.960;14.836;2023-04-24T00:24:24;17.40;99.90
31725;DHT22;18306;40.960;14.836;2023-04-24T00:26:51;17.30;99.90
31725;DHT22;18306;40.960;14.836;2023-04-24T00:29:18;17.20;99.90
31725;DHT22;18306;40.960;14.836;2023-04-24T00:31:45;17.20;99.90
31725;DHT22;18306;40.960;14.836;2023-04-24T00:34:14;17.10;99.90
31725;DHT22;18306;40.960;14.836;2023-04-24T00:36:41;17.10;99.90
31725;DHT22;18306;40.960;14.836;2023-04-24T00:39:08;17.00;99.90
31725;DHT22;18306;40.960;14.836;2023-04-24T00:41:36;17.00;99.90
31725;DHT22;18306;40.960;14.836;2023-04-24T00:44:04;16.90;99.90
31725;DHT22;18306;40.960;14.836;2023-04-24T00:46:31;16.90;99.90
31725;DHT22;18306;40.960;14.836;2023-04-24T00:49:00;16.90;99.90
31725;DHT22;18306;40.960;14.836;2023-04-24T00:51:27;16.90;99.90
31725;DHT22;18306;40.960;14.836;2023-04-24T00:53:54;16.80;99.90
31725;DHT22;18306;40.960;14.836;2023-04-24T00:56:22;16.90;99.90
31725;DHT22;18306;40.960;14.836;2023-04-24T00:58:50;16.80;99.90
31725;DHT22;18306;40.960;14.836;2023-04-24T01:01:22;16.90;99.90
31725;DHT22;18306;40.960;14.836;2023-04-24T01:03:52;16.80;99.90
31725;DHT22;18306;40.960;14.836;2023-04-24T01:06:23;16.80;99.90
31725;DHT22;18306;40.960;14.836;2023-04-24T01:08:55;16.80;99.90
31725;DHT22;18306;40.960;14.836;2023-04-24T01:11:22;16.80;99.90
31725;DHT22;18306;40.960;14.836;2023-04-24T01:13:50;16.80;99.90
31725;DHT22;18306;40.960;14.836;2023-04-24T01:16:18;16.80;99.90
31725;DHT22;18306;40.960;14.836;2023-04-24T01:18:48;16.70;99.90
31725;DHT22;18306;40.960;14.836;2023-04-24T01:21:16;16.70;99.90
31725;DHT22;18306;40.960;14.836;2023-04-24T01:23:46;16.60;99.90
31725;DHT22;18306;40.960;14.836;2023-04-24T01:26:19;16.60;99.90
31725;DHT22;18306;40.960;14.836;2023-04-24T01:28:46;16.60;99.90
31725;DHT22;18306;40.960;14.836;2023-04-24T01:31:15;16.60;99.90
31725;DHT22;18306;40.960;14.836;2023-04-24T01:33:43;16.60;99.90
31725;DHT22;18306;40.960;14.836;2023-04-24T01:36:11;16.50;99.90
31725;DHT22;18306;40.960;14.836;2023-04-24T01:38:38;16.60;99.90
31725;DHT22;18306;40.960;14.836;2023-04-24T01:41:05;16.60;99.90
31725;DHT22;18306;40.960;14.836;2023-04-24T01:43:36;16.60;99.90
31725;DHT22;18306;40.960;14.836;2023-04-24T01:46:03;16.70;99.90
31725;DHT22;18306;40.960;14.836;2023-04-24T01:48:33;16.70;99.90
31725;DHT22;18306;40.960;14.836;2023-04-24T01:51:00;16.60;99.90
31725;DHT22;18306;40.960;14.836;2023-04-24T01:53:27;16.70;99.90
31725;DHT22;18306;40.960;14.836;2023-04-24T01:55:54;16.70;99.90
31725;DHT22;18306;40.960;14.836;2023-04-24T01:58:25;16.70;99.90
31725;DHT22;18306;40.960;14.836;2023-04-24T02:00:52;16.70;99.90
31725;DHT22;18306;40.960;14.836;2023-04-24T02:03:20;16.70;99.90
31725;DHT22;18306;40.960;14.836;2023-04-24T02:05:49;16.80;99.90
31725;DHT22;18306;40.960;14.836;2023-04-24T02:08:16;16.70;99.90
31725;DHT22;18306;40.960;14.836;2023-04-24T02:10:43;16.80;99.90
31725;DHT22;18306;40.960;14.836;2023-04-24T02:13:11;16.80;99.90
31725;DHT22;18306;40.960;14.836;2023-04-24T02:15:38;16.90;99.90
31725;DHT22;18306;40.960;14.836;2023-04-24T02:18:05;16.90;99.90
31725;DHT22;18306;40.960;14.836;2023-04-24T02:20:33;17.10;99.90
31725;DHT22;18306;40.960;14.836;2023-04-24T02:23:02;17.10;99.90
31725;DHT22;18306;40.960;14.836;2023-04-24T02:25:29;17.20;99.90
31725;DHT22;18306;40.960;14.836;2023-04-24T02:27:56;17.20;99.90
31725;DHT22;18306;40.960;14.836;2023-04-24T02:30:23;17.20;99.90
31725;DHT22;18306;40.960;14.836;2023-04-24T02:32:51;17.30;99.90
31725;DHT22;18306;40.960;14.836;2023-04-24T02:35:18;17.40;99.90
31725;DHT22;18306;40.960;14.836;2023-04-24T02:37:45;17.40;99.90
31725;DHT22;18306;40.960;14.836;2023-04-24T02:40:13;17.40;99.90
31725;DHT22;18306;40.960;14.836;2023-04-24T02:42:40;17.40;99.90
31725;DHT22;18306;40.960;14.836;2023-04-24T02:45:07;17.20;99.90
31725;DHT22;18306;40.960;14.836;2023-04-24T02:47:35;17.10;99.90
31725;DHT22;18306;40.960;14.836;2023-04-24T02:50:03;17.10;99.90
31725;DHT22;18306;40.960;14.836;2023-04-24T02:52:33;17.20;99.90
31725;DHT22;18306;40.960;14.836;2023-04-24T02:55:01;17.20;99.90
31725;DHT22;18306;40.960;14.836;2023-04-24T02:57:28;17.10;99.90
31725;DHT22;18306;40.960;14.836;2023-04-24T02:59:57;17.00;99.90
31725;DHT22;18306;40.960;14.836;2023-04-24T03:02:24;16.90;99.90
31725;DHT22;18306;40.960;14.836;2023-04-24T03:04:51;16.90;99.90
31725;DHT22;18306;40.960;14.836;2023-04-24T03:07:20;17.20;99.90
31725;DHT22;18306;40.960;14.836;2023-04-24T03:09:48;17.50;99.90
31725;DHT22;18306;40.960;14.836;2023-04-24T03:12:15;17.60;99.90
31725;DHT22;18306;40.960;14.836;2023-04-24T03:14:44;17.70;99.90
31725;DHT22;18306;40.960;14.836;2023-04-24T03:17:11;17.70;99.90
31725;DHT22;18306;40.960;14.836;2023-04-24T03:19:38;17.70;99.90
31725;DHT22;18306;40.960;14.836;2023-04-24T03:22:10;17.50;99.90
31725;DHT22;18306;40.960;14.836;2023-04-24T03:24:39;17.40;99.90
31725;DHT22;18306;40.960;14.836;2023-04-24T03:27:07;17.40;99.90
31725;DHT22;18306;40.960;14.836;2023-04-24T03:29:50;17.40;99.90
31725;DHT22;18306;40.960;14.836;2023-04-24T03:32:25;17.10;99.90
31725;DHT22;18306;40.960;14.836;2023-04-24T03:34:53;16.80;99.90
31725;DHT22;18306;40.960;14.836;2023-04-24T03:37:20;16.80;99.90
31725;DHT22;18306;40.960;14.836;2023-04-24T03:39:58;16.70;99.90
31725;DHT22;18306;40.960;14.836;2023-04-24T03:42:26;16.80;99.90
31725;DHT22;18306;40.960;14.836;2023-04-24T03:44:56;16.80;99.90
31725;DHT22;18306;40.960;14.836;2023-04-24T03:47:28;16.80;99.90
31725;DHT22;18306;40.960;14.836;2023-04-24T03:49:58;16.80;99.90
31725;DHT22;18306;40.960;14.836;2023-04-24T03:52:25;16.90;99.90
31725;DHT22;18306;40.960;14.836;2023-04-24T03:54:53;16.90;99.90
31725;DHT22;18306;40.960;14.836;2023-04-24T03:57:20;16.40;99.90
31725;DHT22;18306;40.960;14.836;2023-04-24T04:00:02;17.10;99.90
31725;DHT22;18306;40.960;14.836;2023-04-24T04:02:41;17.00;99.90
31725;DHT22;18306;40.960;14.836;2023-04-24T04:05:09;16.90;99.90
31725;DHT22;18306;40.960;14.836;2023-04-24T04:07:36;16.80;99.90
31725;DHT22;18306;40.960;14.836;2023-04-24T04:10:04;16.70;99.90
31725;DHT22;18306;40.960;14.836;2023-04-24T04:12:31;16.70;99.90
31725;DHT22;18306;40.960;14.836;2023-04-24T04:14:59;16.80;99.90
31725;DHT22;18306;40.960;14.836;2023-04-24T04:17:27;16.80;99.90
31725;DHT22;18306;40.960;14.836;2023-04-24T04:19:54;16.80;99.90
31725;DHT22;18306;40.960;14.836;2023-04-24T04:22:23;16.70;99.90
31725;DHT22;18306;40.960;14.836;2023-04-24T04:24:51;16.60;99.90
31725;DHT22;18306;40.960;14.836;2023-04-24T04:27:22;16.60;99.90
31725;DHT22;18306;40.960;14.836;2023-04-24T04:30:02;16.50;99.90
31725;DHT22;18306;40.960;14.836;2023-04-24T04:32:36;16.50;99.90
31725;DHT22;18306;40.960;14.836;2023-04-24T04:35:05;16.50;99.90
31725;DHT22;18306;40.960;14.836;2023-04-24T04:37:33;16.60;99.90
31725;DHT22;18306;40.960;14.836;2023-04-24T04:40:19;16.70;99.90
31725;DHT22;18306;40.960;14.836;2023-04-24T04:42:55;16.80;99.90
31725;DHT22;18306;40.960;14.836;2023-04-24T04:45:24;17.00;99.90
31725;DHT22;18306;40.960;14.836;2023-04-24T04:48:10;17.00;99.90
31725;DHT22;18306;40.960;14.836;2023-04-24T04:50:39;17.00;99.90
31725;DHT22;18306;40.960;14.836;2023-04-24T04:53:08;17.10;99.90
31725;DHT22;18306;40.960;14.836;2023-04-24T04:55:38;17.10;99.90
31725;DHT22;18306;40.960;14.836;2023-04-24T04:58:10;17.00;99.90
31725;DHT22;18306;40.960;14.836;2023-04-24T05:00:38;16.90;99.90
31725;DHT22;18306;40.960;14.836;2023-04-24T05:03:15;16.90;99.90
31725;DHT22;18306;40.960;14.836;2023-04-24T05:05:42;16.90;99.90
31725;DHT22;18306;40.960;14.836;2023-04-24T05:08:13;16.90;99.90
31725;DHT22;18306;40.960;14.836;2023-04-24T05:10:40;16.90;99.90
31725;DHT22;18306;40.960;14.836;2023-04-24T05:13:07;16.80;99.90
31725;DHT22;18306;40.960;14.836;2023-04-24T05:15:35;16.80;99.90
31725;DHT22;18306;40.960;14.836;2023-04-24T05:18:02;16.90;99.90
31725;DHT22;18306;40.960;14.836;2023-04-24T05:20:29;17.00;99.90
31725;DHT22;18306;40.960;14.836;2023-04-24T05:22:56;17.00;99.90
31725;DHT22;18306;40.960;14.836;2023-04-24T05:25:25;17.00;99.90
31725;DHT22;18306;40.960;14.836;2023-04-24T05:27:57;17.00;99.90
31725;DHT22;18306;40.960;14.836;2023-04-24T05:30:24;17.00;99.90
31725;DHT22;18306;40.960;14.836;2023-04-24T05:32:51;16.90;99.90
31725;DHT22;18306;40.960;14.836;2023-04-24T05:35:18;17.00;99.90
31725;DHT22;18306;40.960;14.836;2023-04-24T05:37:46;16.90;99.90
31725;DHT22;18306;40.960;14.836;2023-04-24T05:40:14;17.00;99.90
31725;DHT22;18306;40.960;14.836;2023-04-24T05:42:44;17.10;99.90
31725;DHT22;18306;40.960;14.836;2023-04-24T05:45:14;17.20;99.90
31725;DHT22;18306;40.960;14.836;2023-04-24T05:47:46;17.20;99.90
31725;DHT22;18306;40.960;14.836;2023-04-24T05:50:23;17.20;99.90
31725;DHT22;18306;40.960;14.836;2023-04-24T05:52:57;17.20;99.90
31725;DHT22;18306;40.960;14.836;2023-04-24T05:55:30;17.40;99.90
31725;DHT22;18306;40.960;14.836;2023-04-24T05:57:58;17.40;99.90
31725;DHT22;18306;40.960;14.836;2023-04-24T06:00:26;17.50;99.90
31725;DHT22;18306;40.960;14.836;2023-04-24T06:03:00;17.60;99.90
31725;DHT22;18306;40.960;14.836;2023-04-24T06:05:28;17.60;99.90
31725;DHT22;18306;40.960;14.836;2023-04-24T06:07:55;17.80;99.90
31725;DHT22;18306;40.960;14.836;2023-04-24T06:10:24;17.60;99.90
31725;DHT22;18306;40.960;14.836;2023-04-24T06:12:51;17.70;99.90
31725;DHT22;18306;40.960;14.836;2023-04-24T06:15:18;17.70;99.90
31725;DHT22;18306;40.960;14.836;2023-04-24T06:17:57;17.60;99.90
31725;DHT22;18306;40.960;14.836;2023-04-24T06:20:24;17.80;99.90
31725;DHT22;18306;40.960;14.836;2023-04-24T06:22:52;17.90;99.90
31725;DHT22;18306;40.960;14.836;2023-04-24T06:25:19;17.90;99.90
31725;DHT22;18306;40.960;14.836;2023-04-24T06:27:46;17.70;99.90
31725;DHT22;18306;40.960;14.836;2023-04-24T06:30:13;17.40;99.90
31725;DHT22;18306;40.960;14.836;2023-04-24T06:32:45;17.10;99.90
31725;DHT22;18306;40.960;14.836;2023-04-24T06:35:13;17.10;99.90
31725;DHT22;18306;40.960;14.836;2023-04-24T06:37:41;17.20;99.90
31725;DHT22;18306;40.960;14.836;2023-04-24T06:40:09;17.40;99.90
31725;DHT22;18306;40.960;14.836;2023-04-24T06:42:39;17.70;99.90
31725;DHT22;18306;40.960;14.836;2023-04-24T06:45:09;17.80;99.90
31725;DHT22;18306;40.960;14.836;2023-04-24T06:47:36;18.00;99.90
31725;DHT22;18306;40.960;14.836;2023-04-24T06:50:05;18.30;99.90
31725;DHT22;18306;40.960;14.836;2023-04-24T06:52:32;18.30;99.90
31725;DHT22;18306;40.960;14.836;2023-04-24T06:55:07;18.10;99.90
31725;DHT22;18306;40.960;14.836;2023-04-24T06:57:37;18.10;99.90
31725;DHT22;18306;40.960;14.836;2023-04-24T07:00:08;18.20;99.90
31725;DHT22;18306;40.960;14.836;2023-04-24T07:02:36;18.30;99.90
31725;DHT22;18306;40.960;14.836;2023-04-24T07:05:05;18.20;99.90
31725;DHT22;18306;40.960;14.836;2023-04-24T07:07:39;18.10;99.90
31725;DHT22;18306;40.960;14.836;2023-04-24T07:10:07;18.00;99.90
31725;DHT22;18306;40.960;14.836;2023-04-24T07:12:35;17.90;99.90
31725;DHT22;18306;40.960;14.836;2023-04-24T07:15:02;17.80;99.90
31725;DHT22;18306;40.960;14.836;2023-04-24T07:17:37;17.80;99.90
31725;DHT22;18306;40.960;14.836;2023-04-24T07:20:19;17.60;99.90
31725;DHT22;18306;40.960;14.836;2023-04-24T07:22:52;17.50;99.90
31725;DHT22;18306;40.960;14.836;2023-04-24T20:35:40;17.50;99.90
31725;DHT22;18306;40.960;14.836;2023-04-24T20:38:08;17.60;99.90
31725;DHT22;18306;40.960;14.836;2023-04-24T20:40:38;17.60;99.90
31725;DHT22;18306;40.960;14.836;2023-04-24T20:43:16;17.50;99.90
31725;DHT22;18306;40.960;14.836;2023-04-24T20:46:06;17.50;99.90
31725;DHT22;18306;40.960;14.836;2023-04-24T20:48:47;17.60;99.90
31725;DHT22;18306;40.960;14.836;2023-04-24T20:52:00;17.60;99.90
31725;DHT22;18306;40.960;14.836;2023-04-24T20:54:29;17.70;99.90
31725;DHT22;18306;40.960;14.836;2023-04-24T20:56:59;17.60;99.90
31725;DHT22;18306;40.960;14.836;2023-04-24T20:59:28;17.60;99.90
31725;DHT22;18306;40.960;14.836;2023-04-24T21:01:59;17.60;99.90
31725;DHT22;18306;40.960;14.836;2023-04-24T21:04:29;17.50;99.90
31725;DHT22;18306;40.960;14.836;2023-04-24T21:07:00;17.50;99.90
31725;DHT22;18306;40.960;14.836;2023-04-24T21:09:27;17.50;99.90
31725;DHT22;18306;40.960;14.836;2023-04-24T21:11:56;17.00;99.90
31725;DHT22;18306;40.960;14.836;2023-04-24T21:14:24;17.40;99.90
31725;DHT22;18306;40.960;14.836;2023-04-24T21:16:54;17.50;99.90
31725;DHT22;18306;40.960;14.836;2023-04-24T21:19:27;17.50;99.90
31725;DHT22;18306;40.960;14.836;2023-04-24T21:21:55;17.40;99.90
31725;DHT22;18306;40.960;14.836;2023-04-24T21:24:22;17.30;99.90
31725;DHT22;18306;40.960;14.836;2023-04-24T21:26:50;17.20;99.90
31725;DHT22;18306;40.960;14.836;2023-04-24T21:29:17;17.20;99.90
31725;DHT22;18306;40.960;14.836;2023-04-24T21:31:46;17.10;99.90
31725;DHT22;18306;40.960;14.836;2023-04-24T21:34:14;17.00;99.90
31725;DHT22;18306;40.960;14.836;2023-04-24T21:36:42;17.00;99.90
31725;DHT22;18306;40.960;14.836;2023-04-24T21:39:09;17.00;99.90
31725;DHT22;18306;40.960;14.836;2023-04-24T21:41:37;16.90;99.90
31725;DHT22;18306;40.960;14.836;2023-04-24T21:44:04;16.80;99.90
31725;DHT22;18306;40.960;14.836;2023-04-24T21:46:32;16.50;99.90
31725;DHT22;18306;40.960;14.836;2023-04-24T21:48:59;16.50;99.90
31725;DHT22;18306;40.960;14.836;2023-04-24T21:51:26;16.40;99.90
31725;DHT22;18306;40.960;14.836;2023-04-24T21:53:54;16.40;99.90
31725;DHT22;18306;40.960;14.836;2023-04-24T21:56:21;16.40;99.90
31725;DHT22;18306;40.960;14.836;2023-04-24T21:58:48;16.40;99.90
31725;DHT22;18306;40.960;14.836;2023-04-24T22:01:16;16.60;99.90
31725;DHT22;18306;40.960;14.836;2023-04-24T22:03:44;16.70;99.90
31725;DHT22;18306;40.960;14.836;2023-04-24T22:06:12;16.70;99.90
31725;DHT22;18306;40.960;14.836;2023-04-24T22:08:48;16.70;99.90
31725;DHT22;18306;40.960;14.836;2023-04-24T22:11:18;16.70;99.90
31725;DHT22;18306;40.960;14.836;2023-04-24T22:13:46;16.00;99.90
31725;DHT22;18306;40.960;14.836;2023-04-24T22:16:13;16.70;99.90
31725;DHT22;18306;40.960;14.836;2023-04-24T22:18:40;16.70;99.90
31725;DHT22;18306;40.960;14.836;2023-04-24T22:21:08;16.70;99.90
31725;DHT22;18306;40.960;14.836;2023-04-24T22:23:36;16.70;99.90
31725;DHT22;18306;40.960;14.836;2023-04-24T22:26:05;16.60;99.90
31725;DHT22;18306;40.960;14.836;2023-04-24T22:28:32;16.80;99.90
31725;DHT22;18306;40.960;14.836;2023-04-24T22:31:13;17.00;99.90
31725;DHT22;18306;40.960;14.836;2023-04-24T22:33:48;16.60;99.90
31725;DHT22;18306;40.960;14.836;2023-04-24T22:36:19;17.10;99.90
31725;DHT22;18306;40.960;14.836;2023-04-24T22:38:47;17.10;99.90
31725;DHT22;18306;40.960;14.836;2023-04-24T22:41:14;17.10;99.90
31725;DHT22;18306;40.960;14.836;2023-04-24T22:43:44;17.00;99.90
31725;DHT22;18306;40.960;14.836;2023-04-24T22:46:13;16.90;99.90
31725;DHT22;18306;40.960;14.836;2023-04-24T22:48:41;16.80;99.90
31725;DHT22;18306;40.960;14.836;2023-04-24T22:51:17;17.00;99.90
31725;DHT22;18306;40.960;14.836;2023-04-24T22:53:44;17.10;99.90
31725;DHT22;18306;40.960;14.836;2023-04-24T22:56:12;17.10;99.90
31725;DHT22;18306;40.960;14.836;2023-04-24T22:58:39;17.20;99.90
31725;DHT22;18306;40.960;14.836;2023-04-24T23:01:07;17.30;99.90
31725;DHT22;18306;40.960;14.836;2023-04-24T23:03:35;17.50;99.90
31725;DHT22;18306;40.960;14.836;2023-04-24T23:06:02;17.50;99.90
31725;DHT22;18306;40.960;14.836;2023-04-24T23:08:30;17.50;99.90
31725;DHT22;18306;40.960;14.836;2023-04-24T23:10:57;17.50;99.90
31725;DHT22;18306;40.960;14.836;2023-04-24T23:13:24;17.50;99.90
31725;DHT22;18306;40.960;14.836;2023-04-24T23:15:52;17.40;99.90
31725;DHT22;18306;40.960;14.836;2023-04-24T23:18:19;17.30;99.90
31725;DHT22;18306;40.960;14.836;2023-04-24T23:20:47;17.40;99.90
31725;DHT22;18306;40.960;14.836;2023-04-24T23:23:14;17.40;99.90
31725;DHT22;18306;40.960;14.836;2023-04-24T23:25:43;17.40;99.90
31725;DHT22;18306;40.960;14.836;2023-04-24T23:28:10;17.40;99.90
31725;DHT22;18306;40.960;14.836;2023-04-24T23:30:37;17.30;99.90
31725;DHT22;18306;40.960;14.836;2023-04-24T23:33:05;17.20;99.90
31725;DHT22;18306;40.960;14.836;2023-04-24T23:35:35;16.90;99.90
31725;DHT22;18306;40.960;14.836;2023-04-24T23:38:02;16.90;99.90
31725;DHT22;18306;40.960;14.836;2023-04-24T23:40:29;16.90;99.90
31725;DHT22;18306;40.960;14.836;2023-04-24T23:42:56;17.00;99.90
31725;DHT22;18306;40.960;14.836;2023-04-24T23:45:23;17.00;99.90
31725;DHT22;18306;40.960;14.836;2023-04-24T23:47:50;17.00;99.90
31725;DHT22;18306;40.960;14.836;2023-04-24T23:50:17;17.00;99.90
31725;DHT22;18306;40.960;14.836;2023-04-24T23:52:45;16.90;99.90
31725;DHT22;18306;40.960;14.836;2023-04-24T23:55:13;17.00;99.90
31725;DHT22;18306;40.960;14.836;2023-04-24T23:57:40;17.10;99.90
